createdAt,value
2023-02-11T00:01:31.889Z,78.33
2023-02-11T00:04:34.870Z,78.56
2023-02-11T00:07:37.844Z,78.46
2023-02-11T00:10:40.246Z,80.01
2023-02-11T00:13:44.587Z,79.64
2023-02-11T00:16:47.103Z,79.17
2023-02-11T00:19:53.321Z,78.60
2023-02-11T00:22:55.995Z,79.38
2023-02-11T00:25:58.842Z,78.03
2023-02-11T00:29:02.109Z,78.31
2023-02-11T00:32:09.231Z,77.96
2023-02-11T00:35:11.799Z,78.03
2023-02-11T00:38:15.513Z,79.39
2023-02-11T00:41:19.296Z,79.97
2023-02-11T00:44:22.524Z,80.71
2023-02-11T00:47:25.030Z,78.84
2023-02-11T00:50:28.563Z,79.53
2023-02-11T00:53:32.320Z,79.44
2023-02-11T00:56:35.428Z,78.27
2023-02-11T00:59:38.210Z,78.99
2023-02-11T01:02:41.731Z,78.28
2023-02-11T01:05:46.022Z,78.18
2023-02-11T01:08:49.116Z,77.88
2023-02-11T01:11:51.562Z,78.64
2023-02-11T01:14:54.400Z,78.31
2023-02-11T01:17:56.938Z,78.29
2023-02-11T01:21:00.450Z,78.16
2023-02-11T01:24:03.182Z,80.44
2023-02-11T01:27:05.954Z,80.99
2023-02-11T01:30:10.426Z,80.21
2023-02-11T01:33:13.256Z,80.15
2023-02-11T01:36:16.021Z,79.32
2023-02-11T01:39:19.088Z,78.22
2023-02-11T01:42:23.716Z,79.18
2023-02-11T01:45:46.223Z,79.64
2023-02-11T01:48:53.368Z,79.60
2023-02-11T01:52:02.266Z,80.60
2023-02-11T01:55:27.864Z,79.29
2023-02-11T01:58:36.161Z,79.19
2023-02-11T02:01:41.616Z,79.91
2023-02-11T02:04:59.147Z,79.68
2023-02-11T02:08:23.112Z,80.14
2023-02-11T02:11:26.480Z,80.49
2023-02-11T02:14:29.058Z,79.39
2023-02-11T02:17:43.588Z,79.19
2023-02-11T02:20:52.011Z,79.38
2023-02-11T02:24:14.304Z,80.40
2023-02-11T02:27:48.723Z,80.40
2023-02-11T02:30:57.305Z,81.19
2023-02-11T02:34:02.084Z,80.59
2023-02-11T02:37:13.411Z,81.59
2023-02-11T02:40:23.459Z,82.13
2023-02-11T02:43:28.133Z,81.60
2023-02-11T02:46:32.986Z,82.37
2023-02-11T02:49:36.315Z,81.72
2023-02-11T02:52:53.677Z,81.13
2023-02-11T02:56:07.787Z,81.55
2023-02-11T02:59:29.700Z,80.61
2023-02-11T03:03:04.626Z,80.40
2023-02-11T03:06:44.228Z,80.05
2023-02-11T03:10:03.226Z,80.11
2023-02-11T03:13:07.356Z,79.98
2023-02-11T03:16:22.520Z,80.03
2023-02-11T03:19:31.225Z,79.82
2023-02-11T03:22:41.346Z,79.15
2023-02-11T03:26:23.321Z,80.50
2023-02-11T03:29:51.893Z,81.75
2023-02-11T03:33:06.926Z,81.55
2023-02-11T03:36:15.782Z,80.55
2023-02-11T03:39:24.459Z,80.41
2023-02-11T03:42:32.858Z,81.08
2023-02-11T03:45:37.995Z,82.29
2023-02-11T03:48:54.449Z,81.35
2023-02-11T03:51:58.107Z,80.95
2023-02-11T03:55:04.215Z,79.58
2023-02-11T03:58:07.462Z,79.31
2023-02-11T04:01:10.980Z,79.21
2023-02-11T04:04:13.715Z,79.47
2023-02-11T04:07:16.406Z,79.98
2023-02-11T04:10:19.279Z,80.04
2023-02-11T04:13:22.661Z,81.61
2023-02-11T04:16:25.363Z,81.56
2023-02-11T04:19:28.298Z,82.24
2023-02-11T04:22:31.017Z,82.49
2023-02-11T04:25:33.925Z,82.91
2023-02-11T04:28:36.621Z,82.13
2023-02-11T04:31:39.464Z,80.74
2023-02-11T04:34:42.153Z,80.81
2023-02-11T04:37:44.870Z,82.01
2023-02-11T04:40:47.558Z,81.52
2023-02-11T04:43:50.363Z,81.02
2023-02-11T04:46:53.116Z,81.23
2023-02-11T04:49:56.271Z,82.30
2023-02-11T04:52:58.763Z,82.87
2023-02-11T04:56:02.025Z,84.13
2023-02-11T04:59:05.350Z,84.36
2023-02-11T05:02:08.650Z,84.22
2023-02-11T05:05:11.354Z,83.42
2023-02-11T05:08:13.892Z,83.43
2023-02-11T05:11:19.349Z,82.57
2023-02-11T05:14:21.922Z,82.05
2023-02-11T05:17:24.604Z,81.73
2023-02-11T05:20:27.658Z,81.59
2023-02-11T05:23:30.174Z,82.30
2023-02-11T05:26:33.255Z,81.65
2023-02-11T05:29:35.993Z,80.70
2023-02-11T05:32:39.151Z,81.21
2023-02-11T05:35:45.039Z,82.45
2023-02-11T05:38:48.134Z,81.76
2023-02-11T05:41:50.865Z,80.30
2023-02-11T05:44:53.573Z,80.59
2023-02-11T05:47:57.111Z,79.93
2023-02-11T05:51:00.047Z,80.79
2023-02-11T05:54:02.494Z,81.27
2023-02-11T05:57:05.364Z,80.39
2023-02-11T06:00:09.362Z,80.78
2023-02-11T06:03:18.371Z,81.07
2023-02-11T06:06:21.298Z,81.17
2023-02-11T06:09:24.041Z,82.21
2023-02-11T06:12:27.222Z,82.28
2023-02-11T06:15:29.922Z,82.09
2023-02-11T06:18:33.672Z,81.11
2023-02-11T06:21:43.797Z,81.39
2023-02-11T06:25:00.708Z,79.77
2023-02-11T06:28:04.994Z,79.94
2023-02-11T06:31:08.286Z,79.99
2023-02-11T06:34:11.342Z,79.73
2023-02-11T06:37:14.146Z,78.63
2023-02-11T06:40:16.889Z,77.95
2023-02-11T06:43:20.086Z,78.53
2023-02-11T06:46:23.253Z,79.23
2023-02-11T06:49:25.998Z,80.97
2023-02-11T06:52:29.038Z,81.51
2023-02-11T06:55:31.527Z,83.06
2023-02-11T06:58:34.550Z,83.05
2023-02-11T07:01:37.303Z,82.36
2023-02-11T07:04:40.195Z,82.87
2023-02-11T07:07:42.791Z,81.76
2023-02-11T07:10:45.446Z,81.67
2023-02-11T07:13:48.322Z,81.36
2023-02-11T07:16:50.914Z,81.63
2023-02-11T07:19:53.756Z,81.67
2023-02-11T07:22:56.490Z,81.32
2023-02-11T07:26:06.934Z,81.75
2023-02-11T07:29:09.874Z,81.57
2023-02-11T07:32:13.200Z,81.96
2023-02-11T07:35:16.135Z,82.46
2023-02-11T07:38:18.954Z,82.85
2023-02-11T07:41:24.098Z,82.78
2023-02-11T07:44:26.816Z,82.68
2023-02-11T07:47:29.446Z,83.00
2023-02-11T07:50:32.053Z,83.07
2023-02-11T07:53:34.814Z,81.58
2023-02-11T07:56:37.242Z,81.63
2023-02-11T07:59:40.197Z,81.32
2023-02-11T08:02:42.864Z,81.76
2023-02-11T08:05:45.938Z,80.58
2023-02-11T08:08:49.207Z,81.22
2023-02-11T08:11:51.972Z,80.63
2023-02-11T08:14:55.270Z,79.99
2023-02-11T08:17:57.866Z,81.69
2023-02-11T08:21:05.885Z,81.22
2023-02-11T08:24:09.107Z,83.37
2023-02-11T08:27:11.565Z,81.65
2023-02-11T08:30:14.563Z,81.93
2023-02-11T08:33:16.954Z,81.79
2023-02-11T08:36:22.500Z,82.81
2023-02-11T08:39:25.255Z,82.23
2023-02-11T08:42:27.951Z,81.45
2023-02-11T08:45:30.743Z,82.52
2023-02-11T08:48:33.722Z,79.88
2023-02-11T08:51:36.320Z,78.45
2023-02-11T08:54:39.331Z,78.30
2023-02-11T08:57:41.739Z,74.33
2023-02-11T09:00:45.546Z,71.80
2023-02-11T09:03:48.479Z,71.37
2023-02-11T09:06:51.466Z,72.60
2023-02-11T09:09:53.997Z,73.25
2023-02-11T09:12:57.043Z,75.42
2023-02-11T09:16:01.745Z,75.53
2023-02-11T09:19:05.285Z,74.96
2023-02-11T09:22:08.212Z,75.80
2023-02-11T09:25:11.634Z,76.89
2023-02-11T09:28:14.088Z,76.75
2023-02-11T09:31:19.498Z,77.52
2023-02-11T09:34:22.017Z,77.14
2023-02-11T09:37:24.736Z,76.87
2023-02-11T09:40:27.678Z,76.94
2023-02-11T09:44:03.285Z,76.50
2023-02-11T09:47:34.836Z,74.92
2023-02-11T09:50:42.910Z,73.88
2023-02-11T09:53:45.829Z,71.52
2023-02-11T09:56:48.517Z,69.84
2023-02-11T09:59:51.084Z,67.90
2023-02-11T10:03:18.387Z,67.19
2023-02-11T10:06:32.894Z,66.00
2023-02-11T10:09:45.559Z,66.36
2023-02-11T10:13:18.634Z,65.50
2023-02-11T10:16:43.524Z,66.82
2023-02-11T10:20:14.622Z,67.90
2023-02-11T10:23:22.635Z,70.37
2023-02-11T10:26:30.942Z,69.30
2023-02-11T10:29:49.914Z,71.06
2023-02-11T10:32:59.745Z,72.82
2023-02-11T10:36:04.349Z,71.84
2023-02-11T10:39:17.759Z,69.65
2023-02-11T10:42:20.491Z,72.47
2023-02-11T10:45:33.318Z,71.80
2023-02-11T10:48:37.562Z,71.76
2023-02-11T10:51:40.233Z,71.70
2023-02-11T10:54:55.354Z,72.38
2023-02-11T10:58:02.834Z,70.66
2023-02-11T11:01:19.026Z,68.70
2023-02-11T11:04:44.052Z,64.93
2023-02-11T11:08:02.495Z,59.66
2023-02-11T11:11:09.032Z,63.54
2023-02-11T11:14:20.765Z,63.61
2023-02-11T11:17:23.551Z,62.61
2023-02-11T11:20:29.379Z,64.80
2023-02-11T11:23:32.484Z,64.57
2023-02-11T11:26:49.089Z,62.36
2023-02-11T11:29:55.386Z,63.11
2023-02-11T11:32:59.475Z,61.51
2023-02-11T11:36:09.556Z,60.03
2023-02-11T11:39:26.738Z,62.46
2023-02-11T11:42:34.825Z,62.50
2023-02-11T11:45:37.746Z,62.04
2023-02-11T11:48:47.589Z,61.78
2023-02-11T11:52:19.444Z,60.93
2023-02-11T11:55:27.185Z,60.17
2023-02-11T11:58:32.366Z,60.35
2023-02-11T12:01:54.083Z,63.67
2023-02-11T12:05:14.928Z,64.15
2023-02-11T12:08:31.463Z,61.46
2023-02-11T12:12:03.020Z,58.71
2023-02-11T12:15:31.401Z,57.73
2023-02-11T12:19:12.274Z,57.50
2023-02-11T12:22:41.950Z,58.58
2023-02-11T12:26:16.062Z,59.31
2023-02-11T12:29:36.783Z,60.24
2023-02-11T12:32:45.053Z,59.32
2023-02-11T12:36:05.981Z,58.11
2023-02-11T12:39:12.082Z,57.08
2023-02-11T12:42:57.590Z,56.97
2023-02-11T12:46:33.601Z,56.86
2023-02-11T12:50:18.182Z,55.45
2023-02-11T12:53:29.205Z,52.92
2023-02-11T12:56:39.710Z,51.87
2023-02-11T12:59:57.207Z,51.75
2023-02-11T13:03:07.215Z,52.69
2023-02-11T13:06:16.517Z,52.02
2023-02-11T13:09:32.367Z,51.60
2023-02-11T13:12:55.634Z,51.27
2023-02-11T13:16:19.962Z,52.92
2023-02-11T13:19:41.331Z,53.12
2023-02-11T13:22:51.906Z,52.78
2023-02-11T13:26:24.086Z,51.36
2023-02-11T13:29:36.419Z,50.05
2023-02-11T13:33:16.550Z,50.83
2023-02-11T13:36:22.023Z,53.76
2023-02-11T13:39:25.090Z,51.28
2023-02-11T13:42:29.838Z,52.23
2023-02-11T13:45:50.039Z,53.18
2023-02-11T13:48:54.101Z,52.59
2023-02-11T13:51:58.101Z,51.88
2023-02-11T13:55:19.930Z,51.38
2023-02-11T13:58:29.598Z,53.28
2023-02-11T14:02:07.818Z,54.68
2023-02-11T14:05:39.167Z,55.42
2023-02-11T14:09:01.631Z,56.11
2023-02-11T14:12:31.259Z,56.46
2023-02-11T14:15:41.194Z,57.17
2023-02-11T14:18:55.937Z,56.78
2023-02-11T14:22:13.532Z,57.26
2023-02-11T14:25:27.220Z,57.75
2023-02-11T14:28:34.487Z,56.89
2023-02-11T14:32:05.724Z,56.76
2023-02-11T14:35:47.469Z,56.56
2023-02-11T14:39:29.919Z,56.05
2023-02-11T14:42:34.609Z,56.09
2023-02-11T14:45:38.698Z,55.52
2023-02-11T14:48:46.949Z,55.86
2023-02-11T14:51:49.903Z,55.72
2023-02-11T14:55:17.791Z,56.19
2023-02-11T14:58:27.204Z,56.76
2023-02-11T15:01:36.041Z,56.61
2023-02-11T15:04:40.794Z,57.13
2023-02-11T15:07:49.654Z,56.96
2023-02-11T15:10:55.259Z,57.65
2023-02-11T15:14:01.894Z,58.41
